Time;durP1;ratioP1;P1;durP2;ratioP2;P2;SDS_P1;SDS_P2;PMS_P1;PMS_P2;Temp;Humidity;BMP_temperature;BMP_pressure;BME280_temperature;BME280_humidity;BME280_pressure;Samples;Min_cycle;Max_cycle;Signal;HPM_P1;HPM_P2
2022/03/12 00:04:45;;;;;;;5.50;3.30;;;7.60;99.90;;;;;;10456463;28;84031;-54
2022/03/12 00:09:46;;;;;;;3.88;2.47;;;7.50;99.90;;;;;;10453134;28;85428;-55
2022/03/12 00:14:48;;;;;;;5.78;3.05;;;7.50;99.90;;;;;;10456198;27;84952;-55
2022/03/12 00:19:49;;;;;;;4.63;2.85;;;7.40;99.90;;;;;;10455071;28;84211;-52
2022/03/12 00:24:50;;;;;;;5.60;2.65;;;7.30;99.90;;;;;;10456483;27;84966;-53
2022/03/12 00:29:54;;;;;;;5.85;3.05;;;7.20;99.90;;;;;;10454258;28;84804;-54
2022/03/12 00:34:55;;;;;;;6.90;3.47;;;7.20;99.90;;;;;;10454560;27;87414;-55
2022/03/12 00:39:56;;;;;;;6.75;3.20;;;7.20;99.90;;;;;;10454625;28;84226;-57
2022/03/12 00:44:57;;;;;;;4.45;3.05;;;7.20;99.90;;;;;;10455176;27;84754;-55
2022/03/12 00:49:57;;;;;;;5.93;2.85;;;7.20;99.90;;;;;;10453899;28;86275;-55
2022/03/12 00:54:58;;;;;;;6.10;3.20;;;7.20;99.90;;;;;;10454175;27;84135;-54
2022/03/12 00:59:59;;;;;;;5.38;2.90;;;7.20;99.90;;;;;;10452809;28;85121;-53
2022/03/12 01:04:59;;;;;;;5.88;3.15;;;7.10;99.90;;;;;;10446469;27;84893;-58
2022/03/12 01:10:00;;;;;;;8.95;3.22;;;7.10;99.90;;;;;;10420232;28;85331;-57
2022/03/12 01:15:01;;;;;;;4.35;2.72;;;7.00;99.90;;;;;;10412039;28;84334;-57
2022/03/12 01:20:06;;;;;;;5.13;2.80;;;7.00;99.90;;;;;;10421754;28;84396;-56
2022/03/12 01:25:08;;;;;;;4.18;2.85;;;6.90;99.90;;;;;;10411437;28;84171;-56
2022/03/12 01:30:09;;;;;;;9.23;3.15;;;6.90;99.90;;;;;;10421250;28;84271;-54
2022/03/12 01:35:10;;;;;;;6.85;3.00;;;6.70;99.90;;;;;;10410366;28;84290;-54
2022/03/12 01:40:11;;;;;;;6.15;2.53;;;6.70;99.90;;;;;;10410891;28;84973;-54
2022/03/12 01:45:13;;;;;;;6.43;2.63;;;6.70;99.90;;;;;;10410089;28;84795;-55
2022/03/12 01:50:19;;;;;;;4.65;3.00;;;6.60;99.90;;;;;;10420163;28;84156;-55
2022/03/12 01:55:22;;;;;;;5.63;2.78;;;6.60;99.90;;;;;;10409947;28;84326;-53
2022/03/12 02:00:25;;;;;;;4.65;2.80;;;6.60;99.90;;;;;;10418816;28;84586;-57
2022/03/12 02:05:27;;;;;;;7.50;3.25;;;6.60;99.90;;;;;;10408142;28;85955;-56
2022/03/12 02:10:28;;;;;;;4.75;2.67;;;6.60;99.90;;;;;;10419861;28;84921;-48
2022/03/12 02:15:29;;;;;;;6.85;3.05;;;6.50;99.90;;;;;;10407239;28;84233;-53
2022/03/12 02:20:30;;;;;;;5.25;2.88;;;6.50;99.90;;;;;;10424906;27;84949;-55
2022/03/12 02:25:33;;;;;;;4.82;2.35;;;6.50;99.90;;;;;;10448758;27;86746;-57
2022/03/12 02:30:47;;;;;;;4.05;2.47;;;6.30;99.90;;;;;;10451956;28;84213;-55
2022/03/12 02:35:47;;;;;;;4.32;2.30;;;6.30;99.90;;;;;;10451416;27;84806;-55
2022/03/12 02:40:48;;;;;;;5.15;2.30;;;6.40;99.90;;;;;;10453408;28;84595;-53
2022/03/12 02:45:51;;;;;;;3.92;2.53;;;6.40;99.90;;;;;;10451181;27;84160;-57
2022/03/12 02:50:53;;;;;;;4.32;2.78;;;6.40;99.90;;;;;;10451380;28;84225;-56
2022/03/12 02:55:54;;;;;;;8.77;3.65;;;6.40;99.90;;;;;;10435427;28;85230;-55
2022/03/12 03:00:54;;;;;;;5.70;2.38;;;6.30;99.90;;;;;;10414085;28;84150;-53
2022/03/12 03:05:55;;;;;;;5.72;2.47;;;6.20;99.90;;;;;;10407613;28;85104;-57
2022/03/12 03:10:58;;;;;;;3.95;2.35;;;6.20;99.90;;;;;;10428716;28;84116;-56
2022/03/12 03:16:21;;;;;;;4.82;2.50;;;6.10;99.90;;;;;;10415818;27;84057;-52
2022/03/12 03:21:26;;;;;;;5.53;2.92;;;6.10;99.90;;;;;;10431423;28;84102;-53
2022/03/12 03:26:38;;;;;;;5.25;2.38;;;6.20;99.90;;;;;;10448786;28;85006;-53
2022/03/12 03:31:39;;;;;;;7.22;2.38;;;6.00;99.90;;;;;;10449225;27;84398;-53
2022/03/12 03:36:40;;;;;;;5.80;2.50;;;6.00;99.90;;;;;;10438287;28;84967;-56
2022/03/12 03:41:41;;;;;;;3.97;2.40;;;6.00;99.90;;;;;;10440581;27;85275;-52
2022/03/12 03:46:43;;;;;;;8.52;2.72;;;6.00;99.90;;;;;;10423269;28;85130;-54
2022/03/12 03:51:44;;;;;;;6.70;3.17;;;6.00;99.90;;;;;;10438712;27;87565;-57
2022/03/12 03:56:45;;;;;;;5.97;2.90;;;6.10;99.90;;;;;;10403894;22;84388;-52
2022/03/12 04:01:47;;;;;;;6.28;2.70;;;6.10;99.90;;;;;;10373783;28;84093;-51
2022/03/12 04:06:47;;;;;;;5.05;2.58;;;6.00;99.90;;;;;;10403978;28;86119;-53
2022/03/12 04:11:48;;;;;;;6.90;3.08;;;6.00;99.90;;;;;;10407509;28;84151;-54
2022/03/12 04:16:49;;;;;;;6.40;2.50;;;6.10;99.90;;;;;;10370561;28;87797;-53
2022/03/12 04:21:51;;;;;;;4.47;2.38;;;6.10;99.90;;;;;;10378622;28;84953;-50
2022/03/12 04:26:52;;;;;;;4.88;3.10;;;6.00;99.90;;;;;;10411742;28;84964;-55
2022/03/12 04:31:53;;;;;;;5.13;2.42;;;6.10;99.90;;;;;;10382967;28;84061;-52
2022/03/12 04:36:55;;;;;;;5.68;2.42;;;6.10;99.90;;;;;;10370243;28;84770;-54
2022/03/12 04:41:56;;;;;;;7.07;2.83;;;6.00;99.90;;;;;;10399948;28;84166;-52
2022/03/12 04:46:56;;;;;;;5.43;3.05;;;6.00;99.90;;;;;;10412485;28;85107;-51
2022/03/12 04:51:58;;;;;;;9.55;2.97;;;6.10;99.90;;;;;;10385818;28;84700;-56
2022/03/12 04:56:59;;;;;;;6.13;2.72;;;6.10;99.90;;;;;;10370648;28;85001;-51
2022/03/12 05:01:59;;;;;;;5.18;2.83;;;6.20;99.90;;;;;;10399430;28;84384;-54
2022/03/12 05:07:05;;;;;;;6.03;2.25;;;6.20;99.90;;;;;;10378401;28;84151;-55
2022/03/12 05:12:08;;;;;;;3.17;2.08;;;6.20;99.90;;;;;;10387455;28;85599;-53
2022/03/12 05:17:08;;;;;;;3.95;2.45;;;6.10;99.90;;;;;;10370811;28;84775;-53
2022/03/12 05:22:09;;;;;;;5.93;2.72;;;6.10;1.00;;;;;;10376260;28;84230;-51
2022/03/12 05:27:14;;;;;;;8.20;2.83;;;6.00;1.00;;;;;;10386055;28;84118;-50
2022/03/12 05:32:15;;;;;;;4.05;2.10;;;6.00;1.00;;;;;;10391348;28;84974;-51
2022/03/12 05:37:17;;;;;;;5.50;2.72;;;5.90;1.00;;;;;;10394869;28;84861;-52
2022/03/12 05:42:20;;;;;;;6.88;2.75;;;5.90;1.00;;;;;;10391834;28;84152;-54
2022/03/12 05:47:23;;;;;;;4.03;2.53;;;6.00;1.00;;;;;;10387987;28;84273;-49
2022/03/12 05:52:24;;;;;;;6.85;2.95;;;6.10;1.00;;;;;;10387429;28;84508;-48
2022/03/12 05:57:25;;;;;;;4.97;2.58;;;6.10;1.00;;;;;;10392704;28;86940;-54
2022/03/12 06:02:25;;;;;;;7.63;2.65;;;6.20;1.00;;;;;;10393193;28;84884;-49
2022/03/12 06:07:27;;;;;;;4.22;2.55;;;6.30;1.00;;;;;;10395336;28;85075;-49
2022/03/12 06:12:29;;;;;;;5.78;2.88;;;6.40;1.00;;;;;;10404591;28;87388;-52
2022/03/12 06:17:30;;;;;;;4.88;2.97;;;6.40;1.00;;;;;;10369100;28;84979;-53
2022/03/12 06:22:31;;;;;;;5.63;2.83;;;6.40;1.00;;;;;;10378133;28;84862;-50
2022/03/12 06:27:32;;;;;;;7.35;2.78;;;6.30;1.00;;;;;;10390910;28;86134;-52
2022/03/12 06:32:34;;;;;;;6.78;2.75;;;6.40;1.00;;;;;;10387384;28;85038;-54
2022/03/12 06:37:34;;;;;;;5.13;2.85;;;6.50;1.00;;;;;;10390688;28;84319;-53
2022/03/12 06:42:37;;;;;;;4.90;2.83;;;6.60;1.00;;;;;;10391531;28;85135;-52
2022/03/12 06:47:38;;;;;;;5.63;2.50;;;6.70;1.00;;;;;;10390631;28;84999;-50
2022/03/12 06:52:45;;;;;;;5.90;2.88;;;6.80;1.00;;;;;;10386357;28;84200;-53
2022/03/12 06:57:51;;;;;;;5.32;2.70;;;7.10;1.00;;;;;;10408215;28;85964;-52
2022/03/12 07:02:52;;;;;;;4.90;2.83;;;7.50;1.00;;;;;;10388722;28;86667;-50
2022/03/12 07:07:53;;;;;;;10.23;3.65;;;8.20;1.00;;;;;;10386075;28;84908;-51
2022/03/12 07:12:54;;;;;;;5.82;3.47;;;8.70;1.00;;;;;;10386001;28;85027;-51
2022/03/12 07:17:55;;;;;;;6.57;3.53;;;9.20;1.00;;;;;;10388442;28;84356;-53
2022/03/12 07:22:56;;;;;;;6.63;3.80;;;9.20;1.00;;;;;;10386706;28;84936;-51
2022/03/12 07:27:56;;;;;;;7.40;3.78;;;9.80;1.00;;;;;;10387329;28;84082;-49
2022/03/12 07:32:57;;;;;;;11.40;4.90;;;10.40;1.00;;;;;;10386793;28;84920;-51
2022/03/12 07:37:58;;;;;;;5.60;3.25;;;10.70;1.00;;;;;;10393381;28;84934;-53
2022/03/12 07:42:59;;;;;;;8.50;4.77;;;11.30;1.00;;;;;;10388939;28;84609;-46
2022/03/12 07:48:00;;;;;;;5.80;3.33;;;12.00;1.00;;;;;;10388089;28;85057;-57
2022/03/12 07:53:01;;;;;;;7.93;4.10;;;12.30;1.00;;;;;;10397562;28;84431;-52
2022/03/12 07:58:01;;;;;;;12.50;5.75;;;12.20;1.00;;;;;;10395162;28;85042;-57
2022/03/12 08:03:03;;;;;;;10.55;4.22;;;11.70;1.00;;;;;;10381768;28;84896;-47
2022/03/12 08:08:04;;;;;;;6.85;3.35;;;11.30;1.00;;;;;;10376511;28;84949;-53
2022/03/12 08:13:05;;;;;;;8.30;4.18;;;11.70;1.00;;;;;;10398257;28;85003;-49
2022/03/12 08:18:05;;;;;;;7.18;3.95;;;11.60;1.00;;;;;;10406147;28;85162;-48
2022/03/12 08:23:07;;;;;;;6.30;3.67;;;11.80;1.00;;;;;;10380728;28;84155;-53
2022/03/12 08:28:09;;;;;;;5.07;3.45;;;12.60;1.00;;;;;;10390323;28;84846;-51
2022/03/12 08:33:10;;;;;;;10.77;4.22;;;13.30;1.00;;;;;;10384359;28;84393;-51
2022/03/12 08:38:11;;;;;;;7.50;3.65;;;14.10;1.00;;;;;;10401424;28;84405;-49
2022/03/12 08:43:11;;;;;;;7.20;3.65;;;14.50;1.00;;;;;;10382991;28;84413;-53
2022/03/12 08:48:13;;;;;;;7.70;3.72;;;14.40;1.00;;;;;;10379701;28;85339;-49
2022/03/12 08:53:16;;;;;;;7.40;3.83;;;15.00;1.00;;;;;;10397618;28;84713;-48
2022/03/12 08:58:18;;;;;;;7.35;4.10;;;15.70;1.00;;;;;;10389869;28;84545;-48
2022/03/12 09:03:20;;;;;;;6.50;4.10;;;16.50;1.00;;;;;;10393563;28;87485;-47
2022/03/12 09:08:21;;;;;;;5.53;3.60;;;16.30;1.00;;;;;;10388477;28;84287;-54
2022/03/12 09:13:23;;;;;;;7.82;4.20;;;16.80;1.00;;;;;;10402307;28;85001;-50
2022/03/12 09:18:24;;;;;;;7.72;4.07;;;17.30;1.00;;;;;;10393727;28;84646;-52
2022/03/12 09:23:24;;;;;;;8.70;4.55;;;16.10;1.00;;;;;;10404444;28;84958;-51
2022/03/12 09:28:25;;;;;;;7.85;4.10;;;16.30;1.00;;;;;;10387562;28;84467;-52
2022/03/12 09:33:26;;;;;;;7.72;4.35;;;17.10;1.00;;;;;;10392435;28;86173;-54
2022/03/12 09:38:27;;;;;;;6.57;4.00;;;17.10;1.00;;;;;;10388115;28;84197;-50
2022/03/12 09:43:28;;;;;;;8.55;5.55;;;17.30;1.00;;;;;;10381104;28;85283;-50
2022/03/12 09:48:28;;;;;;;13.32;6.18;;;18.00;1.00;;;;;;10399266;28;84064;-58
2022/03/12 09:53:29;;;;;;;7.63;4.45;;;17.90;1.00;;;;;;10411949;28;84073;-59
2022/03/12 09:58:30;;;;;;;8.20;4.80;;;17.90;1.00;;;;;;10379310;28;85964;-53
2022/03/12 10:03:30;;;;;;;7.72;4.60;;;19.00;1.00;;;;;;10367905;28;86793;-54
2022/03/12 10:08:31;;;;;;;7.75;5.05;;;19.60;1.00;;;;;;10398572;28;85015;-57
2022/03/12 10:13:32;;;;;;;7.07;4.10;;;19.90;1.00;;;;;;10410382;28;84792;-58
2022/03/12 10:18:32;;;;;;;11.30;7.10;;;20.50;1.00;;;;;;10402770;28;84884;-55
2022/03/12 10:23:34;;;;;;;9.48;4.45;;;20.70;1.00;;;;;;10397190;28;85949;-59
2022/03/12 10:28:36;;;;;;;13.85;6.90;;;20.50;1.00;;;;;;10385656;28;84867;-60
2022/03/12 10:33:39;;;;;;;6.93;4.40;;;21.10;1.00;;;;;;10386436;28;85094;-57
2022/03/12 10:38:41;;;;;;;6.40;3.80;;;21.30;1.00;;;;;;10386919;28;84063;-58
2022/03/12 10:43:50;;;;;;;8.95;5.45;;;21.10;1.00;;;;;;10389103;28;84100;-57
2022/03/12 10:48:56;;;;;;;9.77;5.28;;;20.90;1.00;;;;;;10383437;28;84140;-58
2022/03/12 10:54:07;;;;;;;5.22;3.92;;;21.60;1.00;;;;;;10397914;28;84895;-55
2022/03/12 10:59:26;;;;;;;5.78;3.72;;;22.20;1.00;;;;;;10395870;28;84676;-61
2022/03/12 11:04:30;;;;;;;7.53;4.25;;;22.50;1.00;;;;;;10368584;28;84936;-60
2022/03/12 11:09:32;;;;;;;6.72;4.57;;;22.70;1.00;;;;;;10364223;28;84388;-60
2022/03/12 11:14:33;;;;;;;5.72;4.28;;;21.50;1.00;;;;;;10397627;28;84849;-63
2022/03/12 11:19:42;;;;;;;6.75;4.32;;;22.10;1.00;;;;;;10401479;28;85921;-62
2022/03/12 11:24:44;;;;;;;6.30;4.20;;;21.70;1.00;;;;;;10388668;28;84266;-60
2022/03/12 11:29:56;;;;;;;6.85;4.93;;;22.00;1.00;;;;;;10391042;28;84955;-62
2022/03/12 11:35:10;;;;;;;6.30;4.13;;;21.00;1.00;;;;;;10378462;28;84147;-55
2022/03/12 11:40:17;;;;;;;8.60;6.07;;;21.00;1.00;;;;;;10381489;28;85949;-57
2022/03/12 11:45:20;;;;;;;6.53;4.43;;;21.40;1.00;;;;;;10375138;28;84581;-58
2022/03/12 11:50:24;;;;;;;6.13;4.20;;;21.50;1.00;;;;;;10389129;28;84354;-60
2022/03/12 11:55:27;;;;;;;6.15;3.70;;;22.10;1.00;;;;;;10398267;28;85435;-57
2022/03/12 12:00:29;;;;;;;6.35;4.13;;;22.10;1.00;;;;;;10410155;28;84896;-54
2022/03/12 12:05:30;;;;;;;5.93;3.85;;;22.80;1.00;;;;;;10392539;28;85054;-59
2022/03/12 12:10:31;;;;;;;5.32;3.80;;;22.60;1.00;;;;;;10371333;28;84926;-52
2022/03/12 12:15:36;;;;;;;4.82;3.22;;;22.70;1.00;;;;;;10382706;28;84897;-58
2022/03/12 12:20:36;;;;;;;6.22;4.00;;;22.50;1.00;;;;;;10412086;28;84121;-60
2022/03/12 12:25:38;;;;;;;6.28;4.05;;;22.90;1.00;;;;;;10389302;28;86060;-58
2022/03/12 12:30:43;;;;;;;4.78;3.50;;;23.10;1.00;;;;;;10384106;28;84226;-59
2022/03/12 12:35:45;;;;;;;5.38;3.72;;;23.30;1.00;;;;;;10414304;28;84059;-58
2022/03/12 12:40:48;;;;;;;4.82;3.33;;;22.80;1.00;;;;;;10406053;28;84358;-56
2022/03/12 12:45:52;;;;;;;4.88;3.45;;;22.80;1.00;;;;;;10408421;28;84800;-57
2022/03/12 12:51:11;;;;;;;4.70;3.40;;;22.70;1.00;;;;;;10390280;28;84830;-56
2022/03/12 12:56:25;;;;;;;5.32;3.92;;;23.10;1.00;;;;;;10396882;28;85749;-54
2022/03/12 13:01:34;;;;;;;6.45;4.40;;;22.60;1.00;;;;;;10384540;28;84148;-51
2022/03/12 13:06:44;;;;;;;5.63;3.95;;;22.90;1.00;;;;;;10403451;28;84973;-56
2022/03/12 13:11:58;;;;;;;6.22;4.05;;;22.70;1.00;;;;;;10393372;28;84532;-57
2022/03/12 13:17:02;;;;;;;8.98;4.88;;;22.40;1.00;;;;;;10404271;28;84949;-56
2022/03/12 13:22:08;;;;;;;4.75;3.30;;;22.10;1.00;;;;;;10405622;28;84920;-58
2022/03/12 13:27:23;;;;;;;13.50;7.28;;;22.10;1.00;;;;;;10391903;28;86179;-59
2022/03/12 13:32:24;;;;;;;5.50;3.17;;;20.80;1.00;;;;;;10369299;28;84907;-63
2022/03/12 13:37:27;;;;;;;10.95;5.60;;;20.50;1.00;;;;;;10368214;28;84843;-56
2022/03/12 13:42:28;;;;;;;6.50;4.32;;;20.30;1.00;;;;;;10390664;28;84772;-57
2022/03/12 13:47:29;;;;;;;5.70;3.85;;;19.90;1.00;;;;;;10408334;28;84181;-57
2022/03/12 13:52:30;;;;;;;4.68;3.17;;;19.60;1.00;;;;;;10403993;28;85627;-58
2022/03/12 13:57:35;;;;;;;4.78;2.92;;;19.20;1.00;;;;;;10405148;28;84549;-56
2022/03/12 14:02:45;;;;;;;5.05;3.15;;;19.20;1.00;;;;;;10393623;28;86610;-52
2022/03/12 14:07:46;;;;;;;5.65;3.00;;;18.80;1.00;;;;;;10392252;28;85596;-59
2022/03/12 14:12:58;;;;;;;4.88;2.78;;;18.30;1.00;;;;;;10402373;28;84276;-59
2022/03/12 14:17:59;;;;;;;4.93;2.97;;;18.30;1.00;;;;;;10404844;28;84990;-55
2022/03/12 14:23:00;;;;;;;5.15;3.28;;;18.20;1.00;;;;;;10396852;28;84963;-55
2022/03/12 14:28:05;;;;;;;5.75;3.05;;;18.30;1.00;;;;;;10392287;28;84063;-53
2022/03/12 14:33:07;;;;;;;4.78;3.33;;;18.10;1.00;;;;;;10396135;28;84127;-56
2022/03/12 14:38:08;;;;;;;10.32;4.85;;;17.70;1.00;;;;;;10393841;28;86145;-51
2022/03/12 14:43:09;;;;;;;8.35;4.38;;;17.50;1.00;;;;;;10401404;28;84109;-55
2022/03/12 14:48:11;;;;;;;7.07;4.07;;;17.30;1.00;;;;;;10389904;28;85018;-60
2022/03/12 14:53:15;;;;;;;6.78;3.75;;;17.20;1.00;;;;;;10386857;28;85378;-61
2022/03/12 14:58:16;;;;;;;10.27;5.55;;;17.10;1.00;;;;;;10420658;28;85021;-58
2022/03/12 15:03:17;;;;;;;6.32;3.92;;;17.00;1.00;;;;;;10387713;28;86192;-55
2022/03/12 15:08:28;;;;;;;14.02;7.72;;;16.80;1.00;;;;;;10382255;28;84788;-58
2022/03/12 15:13:37;;;;;;;18.17;9.75;;;16.40;1.00;;;;;;10398477;28;84880;-55
2022/03/12 15:18:38;;;;;;;6.85;3.80;;;16.50;99.90;;;;;;10391524;28;84156;-58
2022/03/12 15:23:44;;;;;;;10.18;5.55;;;16.70;99.90;;;;;;10384973;28;84176;-58
2022/03/12 15:28:47;;;;;;;10.20;4.93;;;16.70;99.90;;;;;;10371880;28;84551;-55
2022/03/12 15:33:55;;;;;;;8.43;4.47;;;16.60;99.90;;;;;;10405986;28;86153;-52
2022/03/12 15:38:58;;;;;;;5.40;3.50;;;16.40;99.90;;;;;;10377782;28;85264;-60
2022/03/12 15:44:01;;;;;;;5.95;3.15;;;16.30;99.90;;;;;;10407068;28;87301;-55
2022/03/12 15:49:03;;;;;;;6.45;3.78;;;16.30;99.90;;;;;;10416446;28;84179;-53
2022/03/12 15:54:05;;;;;;;7.43;4.25;;;16.20;99.90;;;;;;10440238;22;84950;-57
2022/03/12 15:59:07;;;;;;;5.85;3.65;;;16.00;99.90;;;;;;10419132;28;84762;-53
2022/03/12 16:04:09;;;;;;;8.43;5.15;;;16.00;1.00;;;;;;10422327;28;84070;-55
2022/03/12 16:09:09;;;;;;;6.30;4.07;;;16.10;1.00;;;;;;10398663;28;87160;-57
2022/03/12 16:14:13;;;;;;;8.70;4.28;;;16.00;1.00;;;;;;10376990;28;85340;-57
2022/03/12 16:19:16;;;;;;;13.85;7.25;;;15.70;1.00;;;;;;10365439;28;84961;-52
2022/03/12 16:24:18;;;;;;;15.25;6.85;;;15.70;1.00;;;;;;10377314;28;85156;-52
2022/03/12 16:29:19;;;;;;;8.82;4.22;;;15.60;1.00;;;;;;10383529;28;84147;-54
2022/03/12 16:34:19;;;;;;;7.57;4.32;;;15.50;1.00;;;;;;10380570;28;84873;-56
2022/03/12 16:39:20;;;;;;;7.38;4.10;;;15.50;53.90;;;;;;10375674;28;84838;-56
2022/03/12 16:44:22;;;;;;;7.18;4.30;;;15.50;99.90;;;;;;10411425;28;84756;-56
2022/03/12 16:49:22;;;;;;;8.38;3.65;;;15.40;99.90;;;;;;10376656;28;84309;-57
2022/03/12 16:54:23;;;;;;;7.30;4.25;;;15.30;1.00;;;;;;10373900;28;84336;-56
2022/03/12 16:59:24;;;;;;;9.38;4.97;;;15.20;1.00;;;;;;10369041;28;86984;-57
2022/03/12 17:04:25;;;;;;;10.15;5.00;;;15.10;1.00;;;;;;10403452;28;87261;-56
2022/03/12 17:09:26;;;;;;;9.80;6.23;;;15.00;99.90;;;;;;10373814;28;85249;-55
2022/03/12 17:14:32;;;;;;;8.05;4.38;;;14.90;1.00;;;;;;10370750;28;84171;-54
2022/03/12 17:19:34;;;;;;;9.25;4.43;;;14.80;99.90;;;;;;10366984;28;86531;-62
2022/03/12 17:24:36;;;;;;;7.60;4.93;;;14.60;1.00;;;;;;10406172;28;84126;-55
2022/03/12 17:29:37;;;;;;;7.80;5.03;;;14.50;1.00;;;;;;10401496;28;84044;-64
2022/03/12 17:34:38;;;;;;;9.50;5.15;;;14.30;1.00;;;;;;10365802;28;84068;-53
2022/03/12 17:39:39;;;;;;;10.05;5.53;;;14.10;1.00;;;;;;10370728;28;84876;-54
2022/03/12 17:44:41;;;;;;;8.40;5.30;;;14.00;1.00;;;;;;10398181;28;84803;-65
2022/03/12 17:49:42;;;;;;;8.80;4.82;;;13.90;43.40;;;;;;10364437;28;86107;-63
2022/03/12 17:54:42;;;;;;;9.32;6.25;;;13.80;99.90;;;;;;10364423;28;84329;-62
2022/03/12 17:59:43;;;;;;;12.32;5.88;;;13.70;99.90;;;;;;10357857;28;84567;-55
2022/03/12 18:04:46;;;;;;;11.82;6.18;;;13.70;1.00;;;;;;10364028;28;84667;-58
2022/03/12 18:09:49;;;;;;;10.20;6.88;;;13.60;1.00;;;;;;10392121;28;84658;-57
2022/03/12 18:14:53;;;;;;;8.95;5.07;;;13.50;1.00;;;;;;10432774;28;84205;-57
2022/03/12 18:19:53;;;;;;;18.27;8.20;;;13.40;1.00;;;;;;10386390;28;84256;-60
2022/03/12 18:24:54;;;;;;;9.75;5.28;;;13.30;1.00;;;;;;10370686;28;84689;-57
2022/03/12 18:29:55;;;;;;;9.02;5.63;;;13.30;1.00;;;;;;10393236;28;84067;-56
2022/03/12 18:34:56;;;;;;;11.57;5.82;;;13.20;1.00;;;;;;10411306;28;85778;-52
2022/03/12 18:39:57;;;;;;;27.75;13.95;;;13.20;1.00;;;;;;10389844;28;84246;-61
2022/03/12 18:44:58;;;;;;;10.02;6.60;;;13.20;1.00;;;;;;10410494;28;84123;-60
2022/03/12 18:49:59;;;;;;;9.57;5.82;;;13.10;1.00;;;;;;10409884;28;84338;-60
2022/03/12 18:55:00;;;;;;;12.68;5.60;;;13.00;1.00;;;;;;10369474;28;84783;-59
2022/03/12 19:00:04;;;;;;;10.95;7.38;;;12.90;1.00;;;;;;10373683;28;84827;-63
2022/03/12 19:05:05;;;;;;;9.02;5.50;;;12.70;8.40;;;;;;10376139;28;85112;-63
2022/03/12 19:10:08;;;;;;;9.07;5.20;;;12.60;99.90;;;;;;10340668;28;84748;-62
2022/03/12 19:15:17;;;;;;;10.73;5.70;;;12.40;99.90;;;;;;10403225;28;84297;-65
2022/03/12 19:20:18;;;;;;;11.30;6.00;;;12.20;99.90;;;;;;10389452;28;84840;-63
2022/03/12 19:25:19;;;;;;;11.10;5.93;;;12.10;99.90;;;;;;10385197;28;84452;-61
2022/03/12 19:30:23;;;;;;;10.45;6.13;;;12.00;99.90;;;;;;10389107;28;84985;-64
2022/03/12 19:35:24;;;;;;;10.10;5.72;;;12.00;99.90;;;;;;10387117;28;85507;-63
2022/03/12 19:40:27;;;;;;;10.63;5.32;;;11.90;99.90;;;;;;10390232;28;84134;-60
2022/03/12 19:45:29;;;;;;;12.60;6.18;;;11.90;99.90;;;;;;10387126;28;84929;-61
2022/03/12 19:50:29;;;;;;;10.70;5.03;;;11.90;99.90;;;;;;10389053;28;84815;-61
2022/03/12 19:55:30;;;;;;;10.82;5.30;;;11.80;99.90;;;;;;10386761;28;84171;-61
2022/03/12 20:00:31;;;;;;;11.50;6.22;;;11.70;99.90;;;;;;10405640;28;87071;-61
2022/03/12 20:05:32;;;;;;;8.25;4.85;;;11.60;99.90;;;;;;10391597;28;84273;-61
2022/03/12 20:10:35;;;;;;;10.32;5.70;;;11.50;99.90;;;;;;10354986;28;84503;-63
2022/03/12 20:15:37;;;;;;;12.15;5.53;;;11.50;99.90;;;;;;10355623;28;85477;-60
2022/03/12 20:20:38;;;;;;;11.68;6.32;;;11.40;99.90;;;;;;10360279;28;85571;-63
2022/03/12 20:25:39;;;;;;;11.65;5.38;;;11.30;99.90;;;;;;10358219;28;85592;-64
2022/03/12 20:30:41;;;;;;;10.00;5.03;;;11.30;99.90;;;;;;10369352;28;84932;-61
2022/03/12 20:35:41;;;;;;;11.32;5.28;;;11.20;99.90;;;;;;10398026;28;84931;-64
2022/03/12 20:40:44;;;;;;;14.48;5.90;;;11.20;99.90;;;;;;10393969;28;84956;-64
2022/03/12 20:45:44;;;;;;;12.88;6.43;;;11.10;99.90;;;;;;10376080;28;85039;-56
2022/03/12 20:50:45;;;;;;;11.65;6.35;;;11.10;99.90;;;;;;10344281;28;85233;-59
2022/03/12 20:55:46;;;;;;;15.38;7.45;;;10.90;99.90;;;;;;10383761;28;84976;-58
2022/03/12 21:00:48;;;;;;;11.23;5.78;;;10.80;99.90;;;;;;10373937;28;84067;-57
2022/03/12 21:05:48;;;;;;;10.80;5.20;;;10.70;99.90;;;;;;10373582;28;83995;-60
2022/03/12 21:10:50;;;;;;;14.13;7.07;;;10.70;99.90;;;;;;10395802;28;84409;-59
2022/03/12 21:15:51;;;;;;;14.23;7.22;;;10.60;99.90;;;;;;10413715;28;84011;-61
2022/03/12 21:20:52;;;;;;;11.73;6.32;;;10.60;99.90;;;;;;10414528;28;84933;-58
2022/03/12 21:25:52;;;;;;;10.52;5.28;;;10.50;99.90;;;;;;10381969;28;84875;-60
2022/03/12 21:30:53;;;;;;;11.13;6.22;;;10.40;1.00;;;;;;10358387;28;85112;-59
2022/03/12 21:35:55;;;;;;;11.45;5.72;;;10.40;99.90;;;;;;10371511;28;84258;-59
2022/03/12 21:40:56;;;;;;;12.68;6.38;;;10.40;99.90;;;;;;10393247;28;85015;-59
2022/03/12 21:45:57;;;;;;;18.27;7.65;;;10.30;1.00;;;;;;10416844;28;84218;-58
2022/03/12 21:50:58;;;;;;;11.52;6.68;;;10.20;1.00;;;;;;10372858;28;85072;-58
2022/03/12 21:55:59;;;;;;;11.68;6.20;;;10.10;1.00;;;;;;10437418;22;86889;-48
2022/03/12 22:01:03;;;;;;;13.43;6.43;;;10.00;1.00;;;;;;10453868;28;85110;-49
2022/03/12 22:06:04;;;;;;;14.93;7.15;;;10.00;1.00;;;;;;10427190;28;84263;-48
2022/03/12 22:11:06;;;;;;;12.40;6.72;;;9.90;1.00;;;;;;10372068;28;84960;-48
2022/03/12 22:16:07;;;;;;;10.88;5.80;;;9.80;1.00;;;;;;10351016;28;85794;-49
2022/03/12 22:21:08;;;;;;;11.32;6.28;;;9.80;1.00;;;;;;10386550;28;85123;-50
2022/03/12 22:26:09;;;;;;;13.35;7.03;;;9.80;1.00;;;;;;10395454;28;84203;-47
2022/03/12 22:31:10;;;;;;;12.77;5.68;;;9.70;1.00;;;;;;10398616;28;85134;-50
2022/03/12 22:36:10;;;;;;;13.98;6.57;;;9.60;1.00;;;;;;10409631;28;85278;-48
2022/03/12 22:41:12;;;;;;;13.63;6.28;;;9.60;1.00;;;;;;10401108;28;84869;-53
2022/03/12 22:46:13;;;;;;;14.77;6.10;;;9.50;1.00;;;;;;10390240;28;86716;-49
2022/03/12 22:51:15;;;;;;;11.63;5.80;;;9.30;1.00;;;;;;10351172;28;84799;-47
2022/03/12 22:56:16;;;;;;;17.80;7.10;;;9.30;1.00;;;;;;10371011;28;84994;-47
2022/03/12 23:01:58;;;;;;;13.40;6.10;;;9.20;1.00;;;;;;10381987;28;85297;-52
2022/03/12 23:12:19;;;;;;;13.30;6.53;;;9.30;1.00;;;;;;10393917;28;85014;-47
2022/03/12 23:17:22;;;;;;;12.48;6.30;;;9.20;1.00;;;;;;10383681;28;84815;-49
2022/03/12 23:22:24;;;;;;;12.07;6.50;;;9.10;1.00;;;;;;10376739;28;84953;-52
2022/03/12 23:27:39;;;;;;;10.63;6.00;;;9.00;1.00;;;;;;10372362;28;84842;-48
2022/03/12 23:32:41;;;;;;;15.07;7.00;;;9.00;1.00;;;;;;10383943;28;84277;-52
2022/03/12 23:37:44;;;;;;;15.95;7.10;;;8.90;1.00;;;;;;10390796;28;84221;-48
2022/03/12 23:42:45;;;;;;;16.67;7.50;;;8.80;1.00;;;;;;10402706;28;84855;-50
2022/03/12 23:47:50;;;;;;;12.57;7.22;;;8.80;1.00;;;;;;10386063;28;84761;-51
2022/03/12 23:52:51;;;;;;;16.42;7.63;;;8.80;1.00;;;;;;10364136;28;87126;-51
2022/03/12 23:57:52;;;;;;;17.52;7.78;;;8.70;1.00;;;;;;10392020;28;84258;-47
